Terminal Aerodrome Forecast
Issued by NWS

Home | Current Version | Previous Version | Text Only | Print | Product List | Glossary On
Versions: 1 2 3 4 5 6 7 8 9 10 11 12 13 14 15
000
FTUS45 KABQ 271100
TAFTCC
TAF
KTCC 271140Z 2712/2812 22010KT P6SM -SHRA SCT035 BKN070
     FM271800 22012G20KT P6SM BKN090
     FM280100 25008KT P6SM SCT100
      AMD NOT SKED=

USA.gov is the U.S. government's official web portal to all federal, state and local government web resources and services.